Time;durP1;ratioP1;P1;durP2;ratioP2;P2;SDS_P1;SDS_P2;PMS_P1;PMS_P2;Temp;Humidity;BMP_temperature;BMP_pressure;BME280_temperature;BME280_humidity;BME280_pressure;Samples;Min_cycle;Max_cycle;Signal;HPM_P1;HPM_P2
2022/03/27 00:01:49;;;;;;;10.45;5.70;;;13.20;40.20;;;;;;10071506;28;20087;-67
2022/03/27 00:06:40;;;;;;;10.60;5.28;;;13.10;40.40;;;;;;10043906;28;20126;-66
2022/03/27 00:11:31;;;;;;;11.30;5.35;;;13.00;40.60;;;;;;10071014;28;20072;-67
2022/03/27 00:16:23;;;;;;;13.07;6.45;;;13.00;40.30;;;;;;10065295;28;20030;-66
2022/03/27 00:21:15;;;;;;;12.00;5.65;;;12.90;40.40;;;;;;10039002;28;20124;-66
2022/03/27 00:26:07;;;;;;;12.52;5.20;;;12.80;40.30;;;;;;10067270;28;20435;-67
2022/03/27 00:31:05;;;;;;;17.98;6.18;;;12.80;40.80;;;;;;10059067;28;20048;-67
2022/03/27 00:35:56;;;;;;;14.18;5.20;;;12.80;40.90;;;;;;10068164;28;20029;-66
2022/03/27 00:40:50;;;;;;;16.58;6.90;;;12.70;41.10;;;;;;10075056;28;20048;-66
2022/03/27 00:45:40;;;;;;;14.55;5.82;;;12.70;41.00;;;;;;10064229;28;20189;-66
2022/03/27 00:50:31;;;;;;;12.77;5.20;;;12.70;40.90;;;;;;10063040;28;20156;-66
2022/03/27 00:55:23;;;;;;;13.75;5.53;;;12.60;41.20;;;;;;10066769;28;20029;-65
2022/03/27 01:00:41;;;;;;;12.98;6.55;;;12.50;41.50;;;;;;10062907;28;20120;-66
2022/03/27 01:05:32;;;;;;;16.33;6.75;;;12.50;42.10;;;;;;10052587;28;20087;-66
2022/03/27 01:10:25;;;;;;;12.73;5.85;;;12.40;42.30;;;;;;10059019;28;20103;-66
2022/03/27 01:15:28;;;;;;;15.82;5.72;;;12.30;42.70;;;;;;10040533;28;20029;-66
2022/03/27 01:20:33;;;;;;;15.18;6.72;;;12.20;43.50;;;;;;10046571;28;20037;-66
2022/03/27 01:25:23;;;;;;;10.10;5.68;;;12.10;44.20;;;;;;10058671;28;20037;-66
2022/03/27 01:30:14;;;;;;;10.63;5.63;;;12.10;43.60;;;;;;10067670;28;20060;-67
2022/03/27 01:35:06;;;;;;;18.13;6.80;;;12.10;43.50;;;;;;10064816;28;20021;-66
2022/03/27 01:39:56;;;;;;;11.10;5.63;;;12.10;43.60;;;;;;10059083;28;20047;-65
2022/03/27 01:44:47;;;;;;;13.57;6.05;;;12.00;44.00;;;;;;10054341;28;20029;-66
2022/03/27 01:49:40;;;;;;;16.83;7.65;;;12.00;44.60;;;;;;10062105;28;20029;-66
2022/03/27 01:54:31;;;;;;;11.55;5.80;;;12.00;44.00;;;;;;10058670;28;20025;-67
2022/03/27 01:59:22;;;;;;;16.20;6.45;;;11.90;44.10;;;;;;10063513;28;20108;-67
2022/03/27 02:04:13;;;;;;;14.85;6.25;;;11.90;44.10;;;;;;10054745;28;20033;-66
2022/03/27 02:09:04;;;;;;;12.07;5.80;;;11.70;44.80;;;;;;10064166;28;20518;-66
2022/03/27 02:13:54;;;;;;;14.27;6.18;;;11.70;44.60;;;;;;10065616;28;20422;-66
2022/03/27 02:18:45;;;;;;;15.00;6.78;;;11.60;44.50;;;;;;10060183;28;20033;-65
2022/03/27 02:23:36;;;;;;;12.45;5.55;;;11.60;45.40;;;;;;10053591;28;20033;-65
2022/03/27 02:28:27;;;;;;;11.88;5.63;;;11.50;45.60;;;;;;10045391;28;20403;-64
2022/03/27 02:33:18;;;;;;;11.73;5.88;;;11.30;46.10;;;;;;10082272;28;20047;-65
2022/03/27 02:38:09;;;;;;;12.88;6.57;;;11.40;46.40;;;;;;10063932;28;20051;-66
2022/03/27 02:42:59;;;;;;;14.10;7.40;;;11.40;46.80;;;;;;10058001;28;20040;-65
2022/03/27 02:47:50;;;;;;;10.90;5.18;;;11.30;47.00;;;;;;10065071;28;20029;-65
2022/03/27 02:52:41;;;;;;;15.50;6.90;;;11.30;47.50;;;;;;10039652;28;20037;-66
2022/03/27 02:57:32;;;;;;;16.65;6.75;;;11.20;47.70;;;;;;10041198;28;20017;-66
2022/03/27 03:02:22;;;;;;;15.25;5.88;;;11.30;47.50;;;;;;10064454;28;20110;-67
2022/03/27 03:07:14;;;;;;;13.95;6.53;;;11.20;47.90;;;;;;10061615;28;20149;-66
2022/03/27 03:12:06;;;;;;;9.82;5.72;;;11.20;48.10;;;;;;10075599;28;20264;-67
2022/03/27 03:16:57;;;;;;;18.45;5.82;;;11.20;48.10;;;;;;10048464;28;20175;-66
2022/03/27 03:21:48;;;;;;;17.20;5.47;;;11.10;48.80;;;;;;10063603;28;20041;-66
2022/03/27 03:26:39;;;;;;;12.80;5.63;;;11.10;49.10;;;;;;10061787;28;20132;-66
2022/03/27 03:31:30;;;;;;;13.40;5.35;;;11.10;49.30;;;;;;10069873;28;20620;-67
2022/03/27 03:36:20;;;;;;;16.75;6.45;;;10.90;49.90;;;;;;10061187;28;20495;-65
2022/03/27 03:41:11;;;;;;;14.52;5.53;;;10.90;49.90;;;;;;10059725;28;20152;-67
2022/03/27 03:46:03;;;;;;;12.85;5.90;;;10.90;50.40;;;;;;10071125;28;20060;-66
2022/03/27 03:50:54;;;;;;;15.20;6.22;;;10.80;50.50;;;;;;10077547;28;20333;-66
2022/03/27 03:55:45;;;;;;;16.33;6.43;;;10.80;50.50;;;;;;10081865;28;20119;-66
2022/03/27 04:00:36;;;;;;;14.73;7.10;;;10.80;50.50;;;;;;10064779;28;20112;-66
2022/03/27 04:05:26;;;;;;;15.20;5.45;;;10.90;50.30;;;;;;10044091;28;20074;-66
2022/03/27 04:10:17;;;;;;;14.82;5.80;;;10.90;50.30;;;;;;10057093;28;20043;-66
2022/03/27 04:15:08;;;;;;;15.88;5.88;;;10.80;50.60;;;;;;10070159;28;20090;-66
2022/03/27 04:19:59;;;;;;;10.75;6.05;;;10.80;50.80;;;;;;10051866;28;20509;-67
2022/03/27 04:24:50;;;;;;;15.05;7.13;;;10.80;50.60;;;;;;10058587;28;20029;-68
2022/03/27 04:29:40;;;;;;;10.55;5.95;;;10.70;50.60;;;;;;10053748;28;20084;-66
2022/03/27 04:34:31;;;;;;;14.55;5.88;;;10.70;50.40;;;;;;10073869;28;20025;-66
2022/03/27 04:39:22;;;;;;;13.10;6.28;;;10.70;50.70;;;;;;10044625;28;20119;-67
2022/03/27 04:44:13;;;;;;;12.50;6.13;;;10.60;51.10;;;;;;10057079;28;20049;-66
2022/03/27 04:49:04;;;;;;;14.00;5.43;;;10.60;50.90;;;;;;10062868;28;20048;-66
2022/03/27 04:53:55;;;;;;;12.40;5.65;;;10.70;51.00;;;;;;10059896;28;20082;-67
2022/03/27 04:58:46;;;;;;;13.85;6.28;;;10.60;50.90;;;;;;10075297;28;20036;-66
2022/03/27 05:03:37;;;;;;;15.65;6.68;;;10.40;51.30;;;;;;10062727;28;20028;-66
2022/03/27 05:08:27;;;;;;;13.38;5.13;;;10.40;51.40;;;;;;10060042;28;20029;-66
2022/03/27 05:13:18;;;;;;;16.30;6.20;;;10.50;51.40;;;;;;10056286;28;20037;-66
2022/03/27 05:18:09;;;;;;;12.00;6.70;;;10.40;51.70;;;;;;10067323;28;20104;-66
2022/03/27 05:23:00;;;;;;;13.45;5.10;;;10.30;52.30;;;;;;10060444;28;20029;-66
2022/03/27 05:27:56;;;;;;;9.63;5.38;;;10.30;52.80;;;;;;10060033;28;20064;-66
2022/03/27 05:32:47;;;;;;;13.45;5.55;;;10.20;52.80;;;;;;10073382;28;20372;-67
2022/03/27 05:37:39;;;;;;;11.98;5.57;;;10.20;53.00;;;;;;10066159;28;20029;-66
2022/03/27 05:42:30;;;;;;;15.13;7.10;;;10.30;53.00;;;;;;10039403;28;20100;-66
2022/03/27 05:47:20;;;;;;;16.02;6.50;;;10.40;53.20;;;;;;10063933;28;20049;-67
2022/03/27 05:52:14;;;;;;;12.98;6.82;;;10.40;53.30;;;;;;10041470;28;20033;-67
2022/03/27 05:57:05;;;;;;;10.43;5.43;;;10.30;53.90;;;;;;10058915;28;20541;-66
2022/03/27 06:01:55;;;;;;;11.88;6.43;;;10.20;54.10;;;;;;10058376;28;20037;-67
2022/03/27 06:06:46;;;;;;;15.32;6.80;;;10.10;54.60;;;;;;10055475;28;20026;-66
2022/03/27 06:11:38;;;;;;;14.90;6.05;;;10.10;54.50;;;;;;10069323;28;20041;-66
2022/03/27 06:16:29;;;;;;;13.32;6.35;;;10.10;55.10;;;;;;10064930;28;20739;-67
2022/03/27 06:21:20;;;;;;;13.88;6.40;;;10.20;54.60;;;;;;10058293;28;20440;-66
2022/03/27 06:26:11;;;;;;;12.02;5.60;;;10.30;54.60;;;;;;10056038;28;20022;-65
2022/03/27 06:31:02;;;;;;;12.38;6.57;;;10.20;54.70;;;;;;10019702;28;20037;-66
2022/03/27 06:35:52;;;;;;;14.75;6.68;;;10.30;54.40;;;;;;10033578;28;20566;-66
2022/03/27 06:40:43;;;;;;;16.15;6.15;;;10.30;54.80;;;;;;10023960;28;20022;-66
2022/03/27 06:45:34;;;;;;;14.73;6.75;;;10.30;54.80;;;;;;10000652;28;20117;-66
2022/03/27 06:50:25;;;;;;;10.95;5.60;;;10.50;54.30;;;;;;10016537;28;20100;-66
2022/03/27 06:55:17;;;;;;;20.92;8.88;;;10.40;55.30;;;;;;10016200;28;20056;-66
2022/03/27 07:05:22;;;;;;;13.52;6.70;;;10.60;55.10;;;;;;10013575;28;20045;-66
2022/03/27 07:10:12;;;;;;;16.27;7.57;;;10.60;55.20;;;;;;10005504;28;20045;-67
2022/03/27 07:15:03;;;;;;;13.82;6.20;;;10.60;55.70;;;;;;10020239;28;20478;-65
2022/03/27 07:19:54;;;;;;;14.07;6.93;;;10.70;55.40;;;;;;10025183;28;20037;-67
2022/03/27 07:24:46;;;;;;;14.00;5.82;;;10.60;56.00;;;;;;10032682;28;20025;-66
2022/03/27 07:29:37;;;;;;;16.05;6.85;;;10.70;56.00;;;;;;10054763;28;20048;-66
2022/03/27 07:34:28;;;;;;;16.60;7.15;;;10.80;55.80;;;;;;10043186;28;20606;-67
2022/03/27 07:39:19;;;;;;;17.38;7.90;;;10.90;55.90;;;;;;10055755;28;20033;-66
2022/03/27 07:44:09;;;;;;;14.45;6.38;;;11.00;55.90;;;;;;10064308;28;20114;-66
2022/03/27 07:49:01;;;;;;;12.80;7.35;;;11.10;55.60;;;;;;10066490;28;20095;-66
2022/03/27 07:53:52;;;;;;;12.35;5.72;;;11.20;55.40;;;;;;10033060;28;20029;-66
2022/03/27 07:58:43;;;;;;;15.70;7.20;;;11.30;55.60;;;;;;10060901;28;20057;-66
2022/03/27 08:03:37;;;;;;;15.60;5.90;;;11.40;55.10;;;;;;10072307;28;20040;-66
2022/03/27 08:08:28;;;;;;;12.23;6.07;;;11.50;55.40;;;;;;10059900;28;20092;-66
2022/03/27 08:13:19;;;;;;;16.17;6.82;;;11.60;55.40;;;;;;10070258;28;20037;-66
2022/03/27 08:18:15;;;;;;;14.95;7.68;;;11.80;55.30;;;;;;10058360;28;20514;-68
2022/03/27 08:23:06;;;;;;;;;;;12.00;54.80;;;;;;10064393;28;20080;-67
2022/03/27 08:27:57;;;;;;;15.70;6.78;;;12.10;54.90;;;;;;10059867;28;19917;-65
2022/03/27 08:32:47;;;;;;;17.63;7.07;;;12.20;54.50;;;;;;10068787;28;20033;-66
2022/03/27 08:37:40;;;;;;;21.85;7.03;;;12.40;54.70;;;;;;10060598;28;20251;-66
2022/03/27 08:42:31;;;;;;;16.23;8.00;;;12.60;54.30;;;;;;10042294;28;20041;-66
2022/03/27 08:47:25;;;;;;;14.23;6.60;;;12.80;54.10;;;;;;10056530;28;20033;-67
2022/03/27 08:52:23;;;;;;;16.08;7.63;;;13.00;53.90;;;;;;10076538;28;20626;-66
2022/03/27 08:57:39;;;;;;;12.70;7.60;;;13.20;53.60;;;;;;10077619;28;20025;-65
2022/03/27 09:02:29;;;;;;;19.42;7.07;;;13.40;53.70;;;;;;10062661;28;20040;-65
2022/03/27 09:07:24;;;;;;;14.32;6.57;;;13.60;53.40;;;;;;10067705;28;20040;-66
2022/03/27 09:12:17;;;;;;;15.40;7.10;;;13.80;53.30;;;;;;10063416;28;20044;-66
2022/03/27 09:17:08;;;;;;;15.63;7.15;;;13.90;53.20;;;;;;10058818;28;20033;-68
2022/03/27 09:21:59;;;;;;;18.73;7.63;;;14.10;52.90;;;;;;10052989;28;20175;-65
2022/03/27 09:27:00;;;;;;;13.82;6.45;;;14.20;52.70;;;;;;10074435;28;20051;-66
2022/03/27 09:31:57;;;;;;;19.10;8.40;;;14.40;52.60;;;;;;10065602;28;20048;-65
2022/03/27 09:36:49;;;;;;;20.45;7.78;;;14.60;52.40;;;;;;10065928;28;20052;-67
2022/03/27 09:41:52;;;;;;;13.65;7.13;;;14.80;52.70;;;;;;10061815;28;20316;-66
2022/03/27 09:46:53;;;;;;;14.05;7.97;;;15.10;52.00;;;;;;10057331;28;20029;-66
2022/03/27 09:51:52;;;;;;;16.08;8.27;;;15.10;51.60;;;;;;10074445;28;20533;-66
2022/03/27 09:56:42;;;;;;;14.05;8.18;;;15.30;51.20;;;;;;10084424;28;20090;-66
2022/03/27 10:01:34;;;;;;;12.77;6.50;;;15.40;51.10;;;;;;10066836;28;20033;-66
2022/03/27 10:06:27;;;;;;;14.48;7.00;;;15.70;50.70;;;;;;10054194;28;20424;-66
2022/03/27 10:11:21;;;;;;;15.77;8.30;;;15.80;50.40;;;;;;10044676;28;20068;-66
2022/03/27 10:16:11;;;;;;;14.95;6.85;;;15.80;50.20;;;;;;10077100;28;20033;-67
2022/03/27 10:21:02;;;;;;;14.15;6.45;;;16.10;49.80;;;;;;10066239;28;20029;-66
2022/03/27 10:25:55;;;;;;;18.45;6.72;;;16.20;49.50;;;;;;10066747;28;20025;-66
2022/03/27 10:30:49;;;;;;;16.10;7.03;;;16.30;48.90;;;;;;10066078;28;20049;-66
2022/03/27 10:36:06;;;;;;;11.25;5.95;;;16.40;48.40;;;;;;10042066;28;20495;-66
2022/03/27 10:41:16;;;;;;;14.00;6.85;;;16.60;47.90;;;;;;10058575;28;20074;-66
2022/03/27 10:46:23;;;;;;;15.77;6.95;;;16.60;47.80;;;;;;10058031;28;20032;-66
2022/03/27 10:51:34;;;;;;;13.32;6.75;;;16.70;47.50;;;;;;10055947;28;20040;-66
2022/03/27 10:56:51;;;;;;;15.05;7.85;;;16.80;47.10;;;;;;10077992;28;20108;-67
2022/03/27 11:01:43;;;;;;;15.55;5.93;;;17.00;46.10;;;;;;10064745;28;20095;-65
2022/03/27 11:06:39;;;;;;;14.38;6.25;;;17.00;46.70;;;;;;10059394;28;20056;-65
2022/03/27 11:11:36;;;;;;;;;;;17.10;46.60;;;;;;10053165;28;20088;-66
2022/03/27 11:16:26;;;;;;;14.80;5.78;;;17.30;45.60;;;;;;10066115;28;19913;-66
2022/03/27 11:21:29;;;;;;;12.70;5.80;;;17.40;45.70;;;;;;10086733;28;20048;-67
2022/03/27 11:26:19;;;;;;;13.95;7.10;;;17.50;45.30;;;;;;10062875;28;20033;-66
2022/03/27 11:31:10;;;;;;;12.98;5.68;;;17.70;45.00;;;;;;10065582;28;20127;-67
2022/03/27 11:36:00;;;;;;;13.25;6.10;;;17.80;44.70;;;;;;10082901;28;20033;-66
2022/03/27 11:41:01;;;;;;;11.55;6.50;;;17.90;44.60;;;;;;10060667;28;20032;-67
2022/03/27 11:45:55;;;;;;;9.35;5.68;;;17.90;44.60;;;;;;10088917;28;20013;-65
2022/03/27 11:50:45;;;;;;;13.93;6.97;;;18.00;44.20;;;;;;10079061;28;20072;-65
2022/03/27 11:55:37;;;;;;;11.90;6.43;;;18.20;43.90;;;;;;10070579;28;20014;-65
2022/03/27 12:00:30;;;;;;;11.55;4.90;;;18.40;43.40;;;;;;10072912;28;20160;-66
2022/03/27 12:05:21;;;;;;;10.68;5.18;;;18.40;43.40;;;;;;10064284;28;20036;-67
2022/03/27 12:10:12;;;;;;;16.50;6.10;;;18.50;43.10;;;;;;10063236;28;20132;-65
2022/03/27 12:15:08;;;;;;;10.75;5.15;;;18.70;42.70;;;;;;10086467;28;20120;-67
2022/03/27 12:20:09;;;;;;;8.32;5.43;;;19.00;41.80;;;;;;10069168;28;20033;-65
2022/03/27 12:25:02;;;;;;;10.02;5.70;;;19.10;41.60;;;;;;10061250;28;20116;-67
2022/03/27 12:29:53;;;;;;;14.38;6.70;;;19.30;41.20;;;;;;10057788;28;20646;-66
2022/03/27 12:34:49;;;;;;;15.18;6.50;;;19.60;40.90;;;;;;10051934;28;20167;-65
2022/03/27 12:39:50;;;;;;;11.07;5.65;;;19.90;40.90;;;;;;10079158;28;20025;-67
2022/03/27 12:44:49;;;;;;;9.70;6.10;;;20.30;40.40;;;;;;10060038;28;20052;-66
2022/03/27 12:49:50;;;;;;;12.93;7.90;;;20.70;40.00;;;;;;10053952;28;20037;-66
2022/03/27 12:54:57;;;;;;;10.18;6.03;;;21.00;39.90;;;;;;10058877;28;20036;-66
2022/03/27 12:59:48;;;;;;;13.52;6.47;;;21.40;39.70;;;;;;10060043;28;20507;-66
2022/03/27 13:05:00;;;;;;;7.97;5.65;;;21.60;39.70;;;;;;10066484;28;20109;-65
2022/03/27 13:09:54;;;;;;;13.60;6.45;;;22.00;37.70;;;;;;10036339;28;20040;-66
2022/03/27 13:14:45;;;;;;;11.23;6.82;;;22.00;39.20;;;;;;10064315;28;20120;-66
2022/03/27 13:19:44;;;;;;;11.13;6.25;;;22.60;39.40;;;;;;10056841;28;20147;-67
2022/03/27 13:24:34;;;;;;;9.57;6.13;;;23.30;38.80;;;;;;10058716;28;20025;-66
2022/03/27 13:29:25;;;;;;;13.70;7.03;;;23.70;38.40;;;;;;10056945;28;20053;-66
2022/03/27 13:34:17;;;;;;;11.05;7.15;;;24.60;37.70;;;;;;10040305;28;20469;-66
2022/03/27 13:39:10;;;;;;;12.40;6.93;;;26.30;36.20;;;;;;10064678;28;20060;-68
2022/03/27 13:44:01;;;;;;;10.80;6.28;;;29.50;34.70;;;;;;10071881;28;20049;-66
2022/03/27 13:48:51;;;;;;;11.30;6.57;;;31.00;32.90;;;;;;10070925;28;20446;-67
2022/03/27 13:53:42;;;;;;;9.47;6.80;;;31.80;32.00;;;;;;10069966;28;20022;-67
2022/03/27 13:58:33;;;;;;;10.30;5.87;;;32.20;31.00;;;;;;10041330;28;20079;-67
2022/03/27 14:03:28;;;;;;;14.77;6.50;;;31.60;30.60;;;;;;10058688;28;20037;-67
2022/03/27 14:08:19;;;;;;;9.20;5.75;;;31.90;29.90;;;;;;10083907;28;20121;-67
2022/03/27 14:13:09;;;;;;;10.93;6.33;;;31.30;29.80;;;;;;10077480;28;20096;-66
2022/03/27 14:18:02;;;;;;;8.90;4.77;;;30.10;29.40;;;;;;10066868;28;20092;-66
2022/03/27 14:22:53;;;;;;;11.35;5.30;;;29.40;29.60;;;;;;10060947;28;20141;-66
2022/03/27 14:27:46;;;;;;;9.90;5.70;;;29.50;29.50;;;;;;10055559;28;20042;-68
2022/03/27 14:32:41;;;;;;;10.27;5.40;;;29.20;29.40;;;;;;10068755;28;20029;-66
2022/03/27 14:37:33;;;;;;;9.55;5.57;;;28.40;29.00;;;;;;10081287;28;20281;-67
2022/03/27 14:42:24;;;;;;;11.80;5.10;;;28.90;29.00;;;;;;10048334;28;20136;-67
2022/03/27 14:47:15;;;;;;;6.27;4.77;;;29.40;28.60;;;;;;10073117;28;20029;-67
2022/03/27 14:52:06;;;;;;;4.95;4.35;;;29.30;28.10;;;;;;10067713;28;20091;-66
2022/03/27 14:56:58;;;;;;;7.40;5.00;;;28.70;28.10;;;;;;10061140;28;20495;-66
2022/03/27 15:01:49;;;;;;;8.17;5.50;;;29.40;27.70;;;;;;10070240;28;20045;-67
2022/03/27 15:06:40;;;;;;;10.48;5.03;;;29.80;27.30;;;;;;10058417;28;20079;-67
2022/03/27 15:11:31;;;;;;;10.85;5.20;;;31.20;27.10;;;;;;10078147;28;20041;-66
2022/03/27 15:16:21;;;;;;;6.70;4.78;;;31.80;26.60;;;;;;10049228;28;20033;-68
2022/03/27 15:21:12;;;;;;;8.00;5.00;;;32.10;26.40;;;;;;10063646;28;20049;-68
2022/03/27 15:26:04;;;;;;;10.30;5.00;;;32.30;25.90;;;;;;10061205;28;20029;-67
2022/03/27 15:30:58;;;;;;;6.95;5.32;;;32.80;25.80;;;;;;10079134;28;20053;-68
2022/03/27 15:35:49;;;;;;;9.15;5.10;;;32.70;25.20;;;;;;10082513;28;20346;-68
2022/03/27 15:40:45;;;;;;;9.48;4.65;;;33.30;24.90;;;;;;10079553;28;20411;-68
2022/03/27 15:45:35;;;;;;;8.52;4.82;;;33.70;24.60;;;;;;10062837;28;20025;-67
2022/03/27 15:50:26;;;;;;;10.55;4.43;;;33.00;24.40;;;;;;10070295;28;20122;-67
2022/03/27 15:55:17;;;;;;;7.88;4.35;;;32.40;24.30;;;;;;10061762;28;20036;-68
2022/03/27 16:00:09;;;;;;;8.98;4.78;;;32.30;24.10;;;;;;10084025;28;20389;-66
2022/03/27 16:05:00;;;;;;;7.40;4.40;;;31.80;24.20;;;;;;10052696;28;20022;-67
2022/03/27 16:09:54;;;;;;;8.98;4.57;;;31.70;24.20;;;;;;10069153;28;20033;-68
2022/03/27 16:14:44;;;;;;;8.73;4.20;;;32.00;24.00;;;;;;10065849;28;20045;-67
2022/03/27 16:19:35;;;;;;;7.18;4.40;;;32.40;23.70;;;;;;10061891;28;20045;-67
2022/03/27 16:24:26;;;;;;;4.97;3.45;;;31.30;23.70;;;;;;10058896;28;20145;-67
2022/03/27 16:29:17;;;;;;;6.30;4.47;;;31.30;23.60;;;;;;10049460;28;20049;-67
2022/03/27 16:34:07;;;;;;;12.65;4.68;;;31.10;23.60;;;;;;10074359;28;20077;-67
2022/03/27 16:38:59;;;;;;;7.20;4.03;;;29.70;23.90;;;;;;10067318;28;20042;-67
2022/03/27 16:43:50;;;;;;;7.50;4.13;;;29.80;23.80;;;;;;10065387;28;20133;-67
2022/03/27 16:48:41;;;;;;;8.13;4.85;;;29.90;23.80;;;;;;10061198;28;20025;-67
2022/03/27 16:53:32;;;;;;;9.07;4.18;;;29.50;23.90;;;;;;10078040;28;20123;-67
2022/03/27 16:58:23;;;;;;;7.45;4.85;;;29.30;24.10;;;;;;10047961;28;20092;-68
2022/03/27 17:03:13;;;;;;;6.22;3.95;;;29.20;24.30;;;;;;10087930;28;20111;-67
2022/03/27 17:08:04;;;;;;;8.15;4.10;;;28.40;24.40;;;;;;10081720;28;20257;-68
2022/03/27 17:12:55;;;;;;;7.80;4.43;;;26.80;25.00;;;;;;10074203;28;20101;-68
2022/03/27 17:17:46;;;;;;;8.02;5.82;;;24.70;26.10;;;;;;10065101;28;20025;-67
2022/03/27 17:22:37;;;;;;;7.20;4.05;;;23.30;27.00;;;;;;10058178;28;20073;-67
2022/03/27 17:27:28;;;;;;;6.82;3.75;;;22.70;27.20;;;;;;10055800;28;20113;-67
2022/03/27 17:32:19;;;;;;;11.32;4.25;;;22.20;27.60;;;;;;10057579;28;20030;-67
2022/03/27 17:37:09;;;;;;;9.65;4.40;;;21.90;28.00;;;;;;10061306;28;20403;-67
2022/03/27 17:42:06;;;;;;;4.63;3.10;;;21.70;28.10;;;;;;10056160;28;20043;-67
2022/03/27 17:46:57;;;;;;;13.32;4.43;;;21.50;28.70;;;;;;10042877;28;20036;-66
2022/03/27 17:51:49;;;;;;;7.95;4.18;;;21.20;29.10;;;;;;10055282;28;20029;-67
2022/03/27 17:56:39;;;;;;;7.10;4.47;;;21.20;29.20;;;;;;10073826;28;20017;-67
2022/03/27 18:01:30;;;;;;;6.47;4.45;;;21.00;29.40;;;;;;10069162;28;20049;-66
2022/03/27 18:06:22;;;;;;;8.57;4.00;;;20.80;29.60;;;;;;10061650;28;20029;-67
2022/03/27 18:11:13;;;;;;;8.45;5.05;;;20.70;29.80;;;;;;10060868;28;20527;-65
2022/03/27 18:16:07;;;;;;;9.85;4.85;;;20.60;30.00;;;;;;10055940;28;20056;-66
2022/03/27 18:20:59;;;;;;;10.23;5.00;;;20.40;30.50;;;;;;10068407;28;20100;-66
2022/03/27 18:25:50;;;;;;;11.25;5.60;;;20.30;30.60;;;;;;10070544;28;20013;-66
2022/03/27 18:30:41;;;;;;;11.60;6.40;;;20.20;31.00;;;;;;10064214;28;20045;-66
2022/03/27 18:35:32;;;;;;;8.27;4.38;;;20.20;31.30;;;;;;10047366;28;20025;-67
2022/03/27 18:40:22;;;;;;;13.10;5.50;;;20.00;32.20;;;;;;10069886;28;20767;-66
2022/03/27 18:45:14;;;;;;;9.00;4.75;;;19.90;32.20;;;;;;10039634;28;20725;-68
2022/03/27 18:50:06;;;;;;;9.48;4.85;;;19.80;32.50;;;;;;10061052;28;20107;-68
2022/03/27 18:54:57;;;;;;;9.52;4.90;;;19.90;32.70;;;;;;10057083;28;20028;-66
2022/03/27 18:59:49;;;;;;;10.25;5.65;;;19.70;32.80;;;;;;10049805;28;20052;-68
2022/03/27 19:04:40;;;;;;;9.40;6.00;;;19.50;32.50;;;;;;10055168;28;20746;-62
2022/03/27 19:09:30;;;;;;;8.88;4.75;;;19.50;32.60;;;;;;10070004;28;20426;-62
2022/03/27 19:14:21;;;;;;;11.10;4.90;;;19.40;32.90;;;;;;10064053;28;20369;-64
2022/03/27 19:19:37;;;;;;;7.95;4.53;;;19.40;33.00;;;;;;10054901;28;20148;-66
2022/03/27 19:24:28;;;;;;;12.90;5.90;;;19.20;33.60;;;;;;10073036;28;20025;-67
2022/03/27 19:29:19;;;;;;;12.13;5.28;;;19.20;33.20;;;;;;10066606;28;20071;-67
2022/03/27 19:34:10;;;;;;;11.20;4.93;;;19.00;33.00;;;;;;10050049;28;20532;-65
2022/03/27 19:39:00;;;;;;;10.77;5.88;;;18.90;33.20;;;;;;10078992;28;20563;-67
2022/03/27 19:43:52;;;;;;;9.32;5.05;;;18.90;33.50;;;;;;10073165;28;20029;-66
2022/03/27 19:48:44;;;;;;;10.57;4.85;;;18.90;33.50;;;;;;10071541;28;20515;-67
2022/03/27 19:53:35;;;;;;;15.38;6.65;;;18.90;33.50;;;;;;10046134;28;20022;-71
2022/03/27 19:58:27;;;;;;;9.73;6.05;;;18.70;33.60;;;;;;10063607;28;20029;-68
2022/03/27 20:03:18;;;;;;;11.57;6.30;;;18.70;34.00;;;;;;10045410;28;20131;-68
2022/03/27 20:08:09;;;;;;;12.35;5.30;;;18.70;34.00;;;;;;10063178;28;20147;-70
2022/03/27 20:13:00;;;;;;;10.50;5.38;;;18.60;34.20;;;;;;10062975;28;20112;-73
2022/03/27 20:17:50;;;;;;;8.95;5.18;;;18.50;34.10;;;;;;10042215;28;20028;-72
2022/03/27 20:22:42;;;;;;;9.85;5.07;;;18.30;34.40;;;;;;10067358;28;20436;-71
2022/03/27 20:27:32;;;;;;;11.50;5.85;;;18.20;34.70;;;;;;10065899;28;20419;-71
2022/03/27 20:32:23;;;;;;;14.75;8.18;;;18.10;35.20;;;;;;10067426;28;20064;-70
2022/03/27 20:37:14;;;;;;;13.05;7.38;;;18.10;35.20;;;;;;10077899;28;20092;-73
2022/03/27 20:42:07;;;;;;;14.15;5.97;;;18.00;35.40;;;;;;10071656;28;20088;-73
2022/03/27 20:46:57;;;;;;;10.18;5.28;;;18.00;35.50;;;;;;10045564;28;20058;-74
2022/03/27 20:51:50;;;;;;;14.32;5.70;;;17.90;35.90;;;;;;10059113;28;20496;-68
2022/03/27 20:56:40;;;;;;;11.07;5.45;;;17.60;36.40;;;;;;10056366;28;20514;-66
2022/03/27 21:01:33;;;;;;;14.15;6.18;;;17.60;36.20;;;;;;10057147;28;20047;-69
2022/03/27 21:06:24;;;;;;;9.82;5.18;;;17.40;36.60;;;;;;10062697;28;20407;-68
2022/03/27 21:11:15;;;;;;;11.75;5.45;;;17.40;36.40;;;;;;10040843;28;20025;-68
2022/03/27 21:16:06;;;;;;;11.30;4.60;;;17.40;36.80;;;;;;10057647;28;20029;-67
2022/03/27 21:20:56;;;;;;;10.73;5.65;;;17.40;36.70;;;;;;10064269;28;20037;-68
2022/03/27 21:25:47;;;;;;;12.18;5.97;;;17.30;36.70;;;;;;10051033;28;20039;-67
2022/03/27 21:30:42;;;;;;;12.18;6.10;;;17.10;37.10;;;;;;10059174;28;20057;-68
2022/03/27 21:35:33;;;;;;;14.75;6.72;;;17.10;37.20;;;;;;10057768;28;20087;-68
2022/03/27 21:40:24;;;;;;;12.63;6.00;;;17.00;37.60;;;;;;10062242;28;20147;-67
2022/03/27 21:45:15;;;;;;;13.18;5.75;;;16.90;38.00;;;;;;10059787;28;20056;-67
2022/03/27 21:50:07;;;;;;;10.88;6.07;;;16.80;37.90;;;;;;10065335;28;20037;-70
2022/03/27 21:55:02;;;;;;;11.38;6.10;;;16.80;38.10;;;;;;10045177;28;20113;-69
2022/03/27 21:59:52;;;;;;;9.00;5.18;;;16.70;37.90;;;;;;10043360;28;20492;-67
2022/03/27 22:04:43;;;;;;;10.57;5.47;;;16.60;38.10;;;;;;10061410;28;20033;-68
2022/03/27 22:09:34;;;;;;;8.00;5.05;;;16.70;38.20;;;;;;10058140;28;20120;-68
2022/03/27 22:14:25;;;;;;;12.07;6.35;;;16.50;38.90;;;;;;10039401;28;20034;-68
2022/03/27 22:19:15;;;;;;;13.57;6.28;;;16.60;38.80;;;;;;10038328;28;20049;-67
2022/03/27 22:24:06;;;;;;;11.38;4.75;;;16.60;38.80;;;;;;10066069;28;20379;-68
2022/03/27 22:29:00;;;;;;;14.60;7.38;;;16.40;39.30;;;;;;10062774;28;20555;-69
2022/03/27 22:33:51;;;;;;;9.43;6.65;;;16.30;39.50;;;;;;10062639;28;20040;-68
2022/03/27 22:38:42;;;;;;;11.40;5.60;;;16.20;39.40;;;;;;10036458;28;20030;-68
2022/03/27 22:43:33;;;;;;;10.30;5.65;;;16.20;39.60;;;;;;10063136;28;20030;-68
2022/03/27 22:48:24;;;;;;;14.43;5.78;;;16.10;39.60;;;;;;10048128;28;20026;-68
2022/03/27 22:53:15;;;;;;;14.77;6.32;;;15.90;39.80;;;;;;10064807;28;20033;-68
2022/03/27 22:58:06;;;;;;;11.48;5.25;;;15.90;40.50;;;;;;10064620;28;20208;-67
2022/03/27 23:02:57;;;;;;;13.05;6.03;;;15.80;40.50;;;;;;10054022;28;20403;-68
2022/03/27 23:07:49;;;;;;;10.00;6.07;;;15.80;40.30;;;;;;10061817;28;20025;-67
2022/03/27 23:12:40;;;;;;;10.65;5.50;;;15.80;40.90;;;;;;10071516;28;20132;-67
2022/03/27 23:17:30;;;;;;;10.20;6.13;;;15.80;41.10;;;;;;10077273;28;20104;-68
2022/03/27 23:22:22;;;;;;;22.17;5.65;;;15.70;41.40;;;;;;10043071;28;20045;-68
2022/03/27 23:27:13;;;;;;;11.32;5.57;;;15.70;41.70;;;;;;10069256;28;20041;-67
2022/03/27 23:32:04;;;;;;;9.75;5.35;;;15.60;42.20;;;;;;10064670;28;20048;-68
2022/03/27 23:36:55;;;;;;;14.07;6.05;;;15.50;42.60;;;;;;10049277;28;20091;-67
2022/03/27 23:41:47;;;;;;;11.50;5.80;;;15.50;43.50;;;;;;10045198;28;20511;-67
2022/03/27 23:46:38;;;;;;;9.75;5.53;;;15.40;43.50;;;;;;10065115;28;20403;-67
2022/03/27 23:51:29;;;;;;;10.77;5.68;;;15.30;43.20;;;;;;10076421;28;20566;-67
2022/03/27 23:56:20;;;;;;;13.85;6.20;;;15.30;43.30;;;;;;10069470;28;20063;-66
